Paramount Helsinki — 2CWB3 — position and weather

sailwx.info

Track history (hours):
 
Tides and Currents Weather Stations Pressure Air Temp Water Temp Dewpoint Dewpoint Depression Visibility Wind Speed Wind Dir Waves Ship Positions

Paramount Helsinki

Last reported at 2017-Oct-14 15:15 UTC. Time now 2017-Oct-17 22:03 UTC.
Position N 29°50' W 093°57'.

Length 250 m; draft 11 m.

Type: Tanker. MMSI: 235076275.

Date/timePositionNaut miles runAvg speedWind from/ knotsBaromVisibWave heightAir tempDewpointWater temp
2017-Oct-14 15:15N 29°50' W 093°57'2 6.2
2017-Oct-14 14:54N 29°52' W 093°56'3 6.9
2017-Oct-14 14:26N 29°55' W 093°54'2 5.7
2017-Oct-14 14:00N 29°57' W 093°52'2 4.7
2017-Oct-14 13:30N 29°59' W 093°53'3 6.1
2017-Oct-14 13:00N 29°60' W 093°56'2 4.3
2017-Oct-14 12:30N 30°01' W 093°58'1 1.4
2017-Oct-14 11:54N 30°01' W 093°59'0 0.0
2017-Oct-14 11:31N 30°01' W 093°59'4 0.1
2017-Oct-12 14:19N 29°59' W 093°54'0 0.0
2017-Oct-12 13:58N 29°59' W 093°54'0 0.0
2017-Oct-12 13:28N 29°59' W 093°54'0 0.0
2017-Oct-12 12:58N 29°59' W 093°54'0 0.0
2017-Oct-12 10:49N 29°59' W 093°54'0 0.0
2017-Oct-12 05:40N 29°59' W 093°54'0 0.0
2017-Oct-12 05:28N 29°59' W 093°54'0 0.0
2017-Oct-12 04:58N 29°59' W 093°54'0 0.0
2017-Oct-12 04:28N 29°59' W 093°54'0 0.0
2017-Oct-12 03:52N 29°59' W 093°54'0 0.0
2017-Oct-12 03:28N 29°59' W 093°54'0 0.0
2017-Oct-12 02:58N 29°59' W 093°54'0 0.0
2017-Oct-12 01:47N 29°59' W 093°54'0 1.4
2017-Oct-12 01:26N 29°59' W 093°55'  
2017-Oct-09 00:23N 29°26' W 093°39'0 0.0
2017-Oct-08 23:50N 29°26' W 093°39'  
Track history (hours):
 
Tides and Currents Weather Stations Pressure Air Temp Water Temp Dewpoint Dewpoint Depression Visibility Wind Speed Wind Dir Waves Ship Positions

Paramount Helsinki

Last reported at 2017-Oct-14 15:15 UTC. Time now 2017-Oct-17 22:03 UTC.
Position N 29°50' W 093°57'.

Length 250 m; draft 11 m.

Type: Tanker. MMSI: 235076275.

Date/timePositionNaut miles runAvg speedWind from/ knotsBaromVisibWave heightAir tempDewpointWater temp
2017-Oct-14 15:15N 29°50' W 093°57'2 6.2
2017-Oct-14 14:54N 29°52' W 093°56'3 6.9
2017-Oct-14 14:26N 29°55' W 093°54'2 5.7
2017-Oct-14 14:00N 29°57' W 093°52'2 4.7
2017-Oct-14 13:30N 29°59' W 093°53'3 6.1
2017-Oct-14 13:00N 29°60' W 093°56'2 4.3
2017-Oct-14 12:30N 30°01' W 093°58'1 1.4
2017-Oct-14 11:54N 30°01' W 093°59'0 0.0
2017-Oct-14 11:31N 30°01' W 093°59'4 0.1
2017-Oct-12 14:19N 29°59' W 093°54'0 0.0
2017-Oct-12 13:58N 29°59' W 093°54'0 0.0
2017-Oct-12 13:28N 29°59' W 093°54'0 0.0
2017-Oct-12 12:58N 29°59' W 093°54'0 0.0
2017-Oct-12 10:49N 29°59' W 093°54'0 0.0
2017-Oct-12 05:40N 29°59' W 093°54'0 0.0
2017-Oct-12 05:28N 29°59' W 093°54'0 0.0
2017-Oct-12 04:58N 29°59' W 093°54'0 0.0
2017-Oct-12 04:28N 29°59' W 093°54'0 0.0
2017-Oct-12 03:52N 29°59' W 093°54'0 0.0
2017-Oct-12 03:28N 29°59' W 093°54'0 0.0
2017-Oct-12 02:58N 29°59' W 093°54'0 0.0
2017-Oct-12 01:47N 29°59' W 093°54'0 1.4
2017-Oct-12 01:26N 29°59' W 093°55'  
2017-Oct-09 00:23N 29°26' W 093°39'0 0.0
2017-Oct-08 23:50N 29°26' W 093°39'  

Dump ship's entire track history